Other Surface Observations
Issued by NWS Great Falls, MT

Home | Current Version | Previous Version | Text Only | Print | Product List | Glossary On
Versions: 1 2 3 4 5 6 7 8 9 10 11 12 13 14 15 16 17 18 19 20 21 22 23 24 25 26 27 28 29 30 31 32 33 34 35 36 37 38 39 40 41 42 43 44 45 46 47 48 49 50
763
SXUS55 KTFX 261529
OSOTFX
AREA AWOS OBSERVATIONS
NATIONAL WEATHER SERVICE GREAT FALLS MT
0829 AM MST SUN FEB 26 2017

METAR KPWD 261530Z AUTO 00000KT 2SM M09/M12 A2971 RMK PLENTYWOOD
METAR KPO1 261530Z AUTO 25003KT 9SM M11/M12 A2974 RMK POPLAR
METAR K1S3 261530Z AUTO 26011G14KT 10SM M01/M08 A2973 RMK FORSYTH
METAR KS71 261530Z AUTO 31008KT 8SM M04/M08 A2978 RMK CHINOOK
METAR K79S 261530Z AUTO 5SM M04/M08 A2978 RMK FORT BENTON
METAR K38S 261530Z AUTO 20004KT 10SM M05/M09 A2971 RMK DEER LODGE
METAR K3U3 261530Z AUTO 18009KT 10SM M06/M12 A2969 RMK ANACONDA
METAR K6S5 261530Z AUTO 18008KT 10SM M03/M08 A2972 RMK HAMILTON
METAR KS59 261530Z AUTO 00000KT 1 3/4SM M04/M06 A2971 RMK LIBBY
METAR K88M 261530Z AUTO 36003KT 2SM M04/M05 A2972 RMK EUREKA



USA.gov is the U.S. government's official web portal to all federal, state and local government web resources and services.